Crosby Integrity — WDH3351 — position and weather

sailwx.info

Track history (hours):
 
Tides and Currents Weather Stations Pressure Air Temp Water Temp Dewpoint Dewpoint Depression Visibility Wind Speed Wind Dir Waves Ship Positions

Crosby Integrity

Owner: Crosby Marine Transportation, LLC, Galliano, LA. More information available from US FCC via Universal Licensing System and Coast Guard Vessel Documentation Center.

Last reported at 2017-Sep-26 15:45 UTC. Time now 2017-Oct-17 02:21 UTC.
Position N 25°13' W 080°07'.
Warning: this ship's position is 20 days out of date.

Length 33 m; draft 4.3 m.

Type: Towing. MMSI: 367508680.

Date/timePositionNaut miles runAvg speedWind from/ knotsBaromVisibWave heightAir tempDewpointWater temp
2017-Sep-26 15:45N 25°13' W 080°07'10 7.5
2017-Sep-26 14:27N 25°22' W 080°03'3 6.9
2017-Sep-26 14:01N 25°25' W 080°02'3 6.3
2017-Sep-26 13:30N 25°28' W 080°02'3 6.4
2017-Sep-26 13:01N 25°31' W 080°02'4 7.8
2017-Sep-26 12:31N 25°35' W 080°02'4 8.7
2017-Sep-26 12:00N 25°39' W 080°02'4 8.8
2017-Sep-26 11:30N 25°44' W 080°02'5 9.0
2017-Sep-26 11:00N 25°48' W 080°03'4 7.5
2017-Sep-26 10:31N 25°52' W 080°03'4 7.8
2017-Sep-26 10:01N 25°56' W 080°03'4 8.0
2017-Sep-26 09:31N 25°60' W 080°03'4 8.6
2017-Sep-26 09:00N 26°04' W 080°04'2 4.3
2017-Sep-26 08:30N 26°06' W 080°06'1 2.5
2017-Sep-26 07:59N 26°06' W 080°07'0 0.0
2017-Sep-26 07:29N 26°06' W 080°07'0 0.0
2017-Sep-26 06:59N 26°06' W 080°07'0 0.0
2017-Sep-26 06:29N 26°06' W 080°07'0 0.0
2017-Sep-26 05:59N 26°06' W 080°07'0 0.0
2017-Sep-26 05:29N 26°06' W 080°07'0 0.0
2017-Sep-26 04:59N 26°06' W 080°07'0 0.0
2017-Sep-26 04:29N 26°06' W 080°07'0 0.0
2017-Sep-26 03:59N 26°06' W 080°07'0 0.1
2017-Sep-26 03:29N 26°06' W 080°07'0 0.1
2017-Sep-26 02:59N 26°06' W 080°07'0 0.0
2017-Sep-26 02:29N 26°06' W 080°07'0 0.0
2017-Sep-26 01:59N 26°06' W 080°07'0 0.0
2017-Sep-26 01:29N 26°06' W 080°07'0 0.0
2017-Sep-26 00:59N 26°06' W 080°07'0 0.0
2017-Sep-26 00:29N 26°06' W 080°07'0 0.0
2017-Sep-25 23:59N 26°06' W 080°07'0 0.0
2017-Sep-25 23:29N 26°06' W 080°07'0 0.0
2017-Sep-25 22:59N 26°06' W 080°07'0 0.0
2017-Sep-25 22:29N 26°06' W 080°07'0 0.0
2017-Sep-25 21:59N 26°06' W 080°07'0 0.0
2017-Sep-25 21:29N 26°06' W 080°07'0 0.0
2017-Sep-25 20:56N 26°06' W 080°07'0 0.0
2017-Sep-25 20:29N 26°06' W 080°07'0 0.0
2017-Sep-25 19:59N 26°06' W 080°07'0 0.0
2017-Sep-25 19:29N 26°06' W 080°07'0 0.0
2017-Sep-25 18:59N 26°06' W 080°07'0 0.0
2017-Sep-25 18:29N 26°06' W 080°07'0 0.0
2017-Sep-25 18:00N 26°06' W 080°07'0 0.0
2017-Sep-25 17:30N 26°06' W 080°07'1 3.0
2017-Sep-25 17:00N 26°06' W 080°06'3 5.1
2017-Sep-25 16:30N 26°04' W 080°04'1 2.8
2017-Sep-25 16:00N 26°02' W 080°04'4 8.6
2017-Sep-25 15:30N 25°58' W 080°04'5 9.8
2017-Sep-25 15:00N 25°53' W 080°03'5 9.7
2017-Sep-25 14:30N 25°48' W 080°03'5 9.5
2017-Sep-25 14:00N 25°43' W 080°02'5 9.3
2017-Sep-25 13:30N 25°39' W 080°02'5 9.4
2017-Sep-25 13:00N 25°34' W 080°02'5 9.3
2017-Sep-25 12:30N 25°29' W 080°02'  
2017-Sep-17 23:34N 25°27' W 080°03'0 7.7
2017-Sep-17 23:30N 25°27' W 080°03'4 7.7
2017-Sep-17 23:00N 25°31' W 080°02'4 8.9
2017-Sep-17 22:30N 25°36' W 080°02'611.1
2017-Sep-17 22:00N 25°41' W 080°02'510.1
2017-Sep-17 21:30N 25°46' W 080°03'5 9.2
2017-Sep-17 21:00N 25°51' W 080°03'5 9.1
2017-Sep-17 20:30N 25°55' W 080°04'5 8.9
2017-Sep-17 19:59N 25°60' W 080°04'5 8.9
2017-Sep-17 19:26N 26°05' W 080°05'2 0.4
2017-Sep-17 13:11N 26°06' W 080°07'0 0.0
2017-Sep-17 13:00N 26°06' W 080°07'0 0.0
2017-Sep-17 12:30N 26°06' W 080°07'0 0.0
2017-Sep-17 12:00N 26°06' W 080°07'0 0.0
2017-Sep-17 11:30N 26°06' W 080°07'0 0.0
2017-Sep-17 11:00N 26°06' W 080°07'0 0.0
2017-Sep-17 10:30N 26°06' W 080°07'0 0.0
2017-Sep-17 10:00N 26°06' W 080°07'0 0.0
2017-Sep-17 09:30N 26°06' W 080°07'0 0.0
2017-Sep-17 09:00N 26°06' W 080°07'0 0.0
2017-Sep-17 08:30N 26°06' W 080°07'0 0.0
2017-Sep-17 08:00N 26°06' W 080°07'0 0.0
2017-Sep-17 07:30N 26°06' W 080°07'0 0.0
2017-Sep-17 07:00N 26°06' W 080°07'0 0.0
2017-Sep-17 06:30N 26°06' W 080°07'0 0.0
2017-Sep-17 06:00N 26°06' W 080°07'0 0.0
2017-Sep-17 05:30N 26°06' W 080°07'1 2.1
2017-Sep-17 05:00N 26°06' W 080°06'2 3.2
2017-Sep-17 04:30N 26°05' W 080°04'3 5.5
2017-Sep-17 04:00N 26°02' W 080°04'4 7.7
2017-Sep-17 03:30N 25°59' W 080°03'4 7.7
2017-Sep-17 03:00N 25°55' W 080°03'4 8.0
2017-Sep-17 02:30N 25°51' W 080°03'4 7.8
2017-Sep-17 02:00N 25°47' W 080°03'4 7.4
2017-Sep-17 01:30N 25°43' W 080°03'4 7.7
2017-Sep-17 01:00N 25°39' W 080°02'4 7.8
2017-Sep-17 00:30N 25°35' W 080°02'4 7.9
2017-Sep-16 23:58N 25°31' W 080°03'  
Track history (hours):
 
Tides and Currents Weather Stations Pressure Air Temp Water Temp Dewpoint Dewpoint Depression Visibility Wind Speed Wind Dir Waves Ship Positions

Crosby Integrity

Owner: Crosby Marine Transportation, LLC, Galliano, LA. More information available from US FCC via Universal Licensing System and Coast Guard Vessel Documentation Center.

Last reported at 2017-Sep-26 15:45 UTC. Time now 2017-Oct-17 02:21 UTC.
Position N 25°13' W 080°07'.
Warning: this ship's position is 20 days out of date.

Length 33 m; draft 4.3 m.

Type: Towing. MMSI: 367508680.

Date/timePositionNaut miles runAvg speedWind from/ knotsBaromVisibWave heightAir tempDewpointWater temp
2017-Sep-26 15:45N 25°13' W 080°07'10 7.5
2017-Sep-26 14:27N 25°22' W 080°03'3 6.9
2017-Sep-26 14:01N 25°25' W 080°02'3 6.3
2017-Sep-26 13:30N 25°28' W 080°02'3 6.4
2017-Sep-26 13:01N 25°31' W 080°02'4 7.8
2017-Sep-26 12:31N 25°35' W 080°02'4 8.7
2017-Sep-26 12:00N 25°39' W 080°02'4 8.8
2017-Sep-26 11:30N 25°44' W 080°02'5 9.0
2017-Sep-26 11:00N 25°48' W 080°03'4 7.5
2017-Sep-26 10:31N 25°52' W 080°03'4 7.8
2017-Sep-26 10:01N 25°56' W 080°03'4 8.0
2017-Sep-26 09:31N 25°60' W 080°03'4 8.6
2017-Sep-26 09:00N 26°04' W 080°04'2 4.3
2017-Sep-26 08:30N 26°06' W 080°06'1 2.5
2017-Sep-26 07:59N 26°06' W 080°07'0 0.0
2017-Sep-26 07:29N 26°06' W 080°07'0 0.0
2017-Sep-26 06:59N 26°06' W 080°07'0 0.0
2017-Sep-26 06:29N 26°06' W 080°07'0 0.0
2017-Sep-26 05:59N 26°06' W 080°07'0 0.0
2017-Sep-26 05:29N 26°06' W 080°07'0 0.0
2017-Sep-26 04:59N 26°06' W 080°07'0 0.0
2017-Sep-26 04:29N 26°06' W 080°07'0 0.0
2017-Sep-26 03:59N 26°06' W 080°07'0 0.1
2017-Sep-26 03:29N 26°06' W 080°07'0 0.1
2017-Sep-26 02:59N 26°06' W 080°07'0 0.0
2017-Sep-26 02:29N 26°06' W 080°07'0 0.0
2017-Sep-26 01:59N 26°06' W 080°07'0 0.0
2017-Sep-26 01:29N 26°06' W 080°07'0 0.0
2017-Sep-26 00:59N 26°06' W 080°07'0 0.0
2017-Sep-26 00:29N 26°06' W 080°07'0 0.0
2017-Sep-25 23:59N 26°06' W 080°07'0 0.0
2017-Sep-25 23:29N 26°06' W 080°07'0 0.0
2017-Sep-25 22:59N 26°06' W 080°07'0 0.0
2017-Sep-25 22:29N 26°06' W 080°07'0 0.0
2017-Sep-25 21:59N 26°06' W 080°07'0 0.0
2017-Sep-25 21:29N 26°06' W 080°07'0 0.0
2017-Sep-25 20:56N 26°06' W 080°07'0 0.0
2017-Sep-25 20:29N 26°06' W 080°07'0 0.0
2017-Sep-25 19:59N 26°06' W 080°07'0 0.0
2017-Sep-25 19:29N 26°06' W 080°07'0 0.0
2017-Sep-25 18:59N 26°06' W 080°07'0 0.0
2017-Sep-25 18:29N 26°06' W 080°07'0 0.0
2017-Sep-25 18:00N 26°06' W 080°07'0 0.0
2017-Sep-25 17:30N 26°06' W 080°07'1 3.0
2017-Sep-25 17:00N 26°06' W 080°06'3 5.1
2017-Sep-25 16:30N 26°04' W 080°04'1 2.8
2017-Sep-25 16:00N 26°02' W 080°04'4 8.6
2017-Sep-25 15:30N 25°58' W 080°04'5 9.8
2017-Sep-25 15:00N 25°53' W 080°03'5 9.7
2017-Sep-25 14:30N 25°48' W 080°03'5 9.5
2017-Sep-25 14:00N 25°43' W 080°02'5 9.3
2017-Sep-25 13:30N 25°39' W 080°02'5 9.4
2017-Sep-25 13:00N 25°34' W 080°02'5 9.3
2017-Sep-25 12:30N 25°29' W 080°02'  
2017-Sep-17 23:34N 25°27' W 080°03'0 7.7
2017-Sep-17 23:30N 25°27' W 080°03'4 7.7
2017-Sep-17 23:00N 25°31' W 080°02'4 8.9
2017-Sep-17 22:30N 25°36' W 080°02'611.1
2017-Sep-17 22:00N 25°41' W 080°02'510.1
2017-Sep-17 21:30N 25°46' W 080°03'5 9.2
2017-Sep-17 21:00N 25°51' W 080°03'5 9.1
2017-Sep-17 20:30N 25°55' W 080°04'5 8.9
2017-Sep-17 19:59N 25°60' W 080°04'5 8.9
2017-Sep-17 19:26N 26°05' W 080°05'2 0.4
2017-Sep-17 13:11N 26°06' W 080°07'0 0.0
2017-Sep-17 13:00N 26°06' W 080°07'0 0.0
2017-Sep-17 12:30N 26°06' W 080°07'0 0.0
2017-Sep-17 12:00N 26°06' W 080°07'0 0.0
2017-Sep-17 11:30N 26°06' W 080°07'0 0.0
2017-Sep-17 11:00N 26°06' W 080°07'0 0.0
2017-Sep-17 10:30N 26°06' W 080°07'0 0.0
2017-Sep-17 10:00N 26°06' W 080°07'0 0.0
2017-Sep-17 09:30N 26°06' W 080°07'0 0.0
2017-Sep-17 09:00N 26°06' W 080°07'0 0.0
2017-Sep-17 08:30N 26°06' W 080°07'0 0.0
2017-Sep-17 08:00N 26°06' W 080°07'0 0.0
2017-Sep-17 07:30N 26°06' W 080°07'0 0.0
2017-Sep-17 07:00N 26°06' W 080°07'0 0.0
2017-Sep-17 06:30N 26°06' W 080°07'0 0.0
2017-Sep-17 06:00N 26°06' W 080°07'0 0.0
2017-Sep-17 05:30N 26°06' W 080°07'1 2.1
2017-Sep-17 05:00N 26°06' W 080°06'2 3.2
2017-Sep-17 04:30N 26°05' W 080°04'3 5.5
2017-Sep-17 04:00N 26°02' W 080°04'4 7.7
2017-Sep-17 03:30N 25°59' W 080°03'4 7.7
2017-Sep-17 03:00N 25°55' W 080°03'4 8.0
2017-Sep-17 02:30N 25°51' W 080°03'4 7.8
2017-Sep-17 02:00N 25°47' W 080°03'4 7.4
2017-Sep-17 01:30N 25°43' W 080°03'4 7.7
2017-Sep-17 01:00N 25°39' W 080°02'4 7.8
2017-Sep-17 00:30N 25°35' W 080°02'4 7.9
2017-Sep-16 23:58N 25°31' W 080°03'  

Dump ship's entire track history